createdAt,value
2023-01-30T00:01:08.572Z,98576.09
2023-01-30T00:03:35.190Z,98550.38
2023-01-30T00:06:01.781Z,98562.81
2023-01-30T00:08:28.510Z,98548.81
2023-01-30T00:10:55.053Z,98505.72
2023-01-30T00:13:21.695Z,98529.06
2023-01-30T00:15:48.617Z,98537.22
2023-01-30T00:18:15.198Z,98526.69
2023-01-30T00:20:41.759Z,98521.41
2023-01-30T00:23:08.294Z,98508.25
2023-01-30T00:25:34.972Z,98503.91
2023-01-30T00:28:02.180Z,98496.78
2023-01-30T00:30:30.235Z,98490.56
2023-01-30T00:32:58.913Z,98470.19
2023-01-30T00:35:28.843Z,98481.72
2023-01-30T00:38:00.591Z,98472.00
2023-01-30T00:40:29.288Z,98461.47
2023-01-30T00:43:14.441Z,98456.19
2023-01-30T00:46:02.902Z,98422.94
2023-01-30T00:48:29.621Z,98435.41
2023-01-30T00:50:56.538Z,98425.19
2023-01-30T00:53:23.338Z,98432.78
2023-01-30T00:55:54.609Z,98444.50
2023-01-30T00:58:22.278Z,98425.22
2023-01-30T01:00:49.937Z,98406.97
2023-01-30T01:03:16.731Z,98409.31
2023-01-30T01:05:44.234Z,98390.75
2023-01-30T01:08:14.316Z,98408.25
2023-01-30T01:10:40.990Z,98403.84
2023-01-30T01:13:07.622Z,98375.69
2023-01-30T01:15:35.341Z,98390.56
2023-01-30T01:18:01.922Z,98392.25
2023-01-30T01:20:28.633Z,98377.69
2023-01-30T01:22:56.922Z,98385.16
2023-01-30T01:25:24.992Z,98378.19
2023-01-30T01:27:52.254Z,98372.00
2023-01-30T01:30:19.174Z,98370.09
2023-01-30T01:32:45.708Z,98360.41
2023-01-30T01:35:12.317Z,98349.03
2023-01-30T01:37:38.902Z,98310.25
2023-01-30T01:40:24.890Z,98348.09
2023-01-30T01:42:51.899Z,98336.69
2023-01-30T01:45:20.456Z,98334.78
2023-01-30T01:48:04.526Z,98327.72
2023-01-30T01:50:58.404Z,98325.06
2023-01-30T01:53:34.076Z,98291.78
2023-01-30T01:56:02.244Z,98312.88
2023-01-30T01:58:32.156Z,98316.22
2023-01-30T02:01:00.278Z,98251.13
2023-01-30T02:03:30.269Z,98303.91
2023-01-30T02:06:00.860Z,98291.56
2023-01-30T02:08:33.445Z,98269.34
2023-01-30T02:11:23.061Z,98279.25
2023-01-30T02:13:50.735Z,98276.94
2023-01-30T02:16:20.926Z,98275.88
2023-01-30T02:18:48.267Z,98268.69
2023-01-30T02:21:45.829Z,98272.16
2023-01-30T02:24:31.253Z,98277.44
2023-01-30T02:27:14.877Z,98259.81
2023-01-30T02:30:06.272Z,98263.44
2023-01-30T02:32:48.553Z,98253.72
2023-01-30T02:35:44.292Z,98251.09
2023-01-30T02:38:10.819Z,98244.88
2023-01-30T02:41:19.289Z,98234.31
2023-01-30T02:43:59.918Z,98224.72
2023-01-30T02:46:46.602Z,98234.31
2023-01-30T02:49:17.613Z,98230.00
2023-01-30T02:51:46.144Z,98222.09
2023-01-30T02:54:15.101Z,98216.94
2023-01-30T02:56:52.571Z,98220.41
2023-01-30T02:59:31.985Z,98205.78
2023-01-30T03:02:10.923Z,98189.84
2023-01-30T03:04:58.490Z,98195.22
2023-01-30T03:07:34.879Z,98182.16
2023-01-30T03:10:36.902Z,98181.31
2023-01-30T03:13:34.155Z,98192.81
2023-01-30T03:16:26.226Z,98170.47
2023-01-30T03:18:54.983Z,98179.88
2023-01-30T03:21:21.530Z,98147.50
2023-01-30T03:23:48.081Z,98158.03
2023-01-30T03:26:20.087Z,98171.34
2023-01-30T03:28:48.656Z,98178.38
2023-01-30T03:31:15.956Z,98168.81
2023-01-30T03:33:43.151Z,98176.72
2023-01-30T03:36:10.787Z,98152.81
2023-01-30T03:38:37.512Z,98156.91
2023-01-30T03:41:05.386Z,98160.03
2023-01-30T03:43:33.400Z,98161.84
2023-01-30T03:46:03.024Z,98158.34
2023-01-30T03:48:30.049Z,98157.53
2023-01-30T03:50:56.614Z,98147.94
2023-01-30T03:53:23.410Z,98126.97
2023-01-30T03:55:50.344Z,98119.91
2023-01-30T03:58:22.260Z,98125.28
2023-01-30T04:00:48.891Z,98124.56
2023-01-30T04:03:15.909Z,98121.78
2023-01-30T04:05:43.781Z,98115.69
2023-01-30T04:08:10.882Z,98102.22
2023-01-30T04:10:38.162Z,98104.41
2023-01-30T04:13:05.155Z,98108.88
2023-01-30T04:15:32.650Z,98102.16
2023-01-30T04:18:19.596Z,98109.81
2023-01-30T04:20:51.201Z,98100.22
2023-01-30T04:23:24.268Z,98093.19
2023-01-30T04:25:51.099Z,98078.75
2023-01-30T04:28:20.075Z,98095.06
2023-01-30T04:30:47.656Z,98084.66
2023-01-30T04:33:35.384Z,98080.22
2023-01-30T04:36:04.936Z,98079.38
2023-01-30T04:38:32.967Z,98068.44
2023-01-30T04:40:59.882Z,98034.56
2023-01-30T04:43:29.940Z,98068.09
2023-01-30T04:46:19.881Z,98056.81
2023-01-30T04:48:46.551Z,98053.38
2023-01-30T04:51:13.261Z,98056.81
2023-01-30T04:53:39.875Z,98057.81
2023-01-30T04:56:07.601Z,98064.84
2023-01-30T04:58:34.319Z,98071.91
2023-01-30T05:01:23.183Z,98061.50
2023-01-30T05:03:51.653Z,98065.91
2023-01-30T05:06:18.726Z,98060.03
2023-01-30T05:08:51.784Z,98051.00
2023-01-30T05:11:19.761Z,98059.19
2023-01-30T05:13:46.664Z,98062.44
2023-01-30T05:16:14.615Z,98049.81
2023-01-30T05:18:41.839Z,98046.66
2023-01-30T05:21:14.810Z,98032.34
2023-01-30T05:23:41.809Z,98018.34
2023-01-30T05:26:08.999Z,98027.47
2023-01-30T05:28:35.940Z,97989.69
2023-01-30T05:31:03.227Z,98013.47
2023-01-30T05:33:30.342Z,98000.84
2023-01-30T05:35:57.616Z,98005.56
2023-01-30T05:38:24.929Z,98001.25
2023-01-30T05:41:08.500Z,97994.31
2023-01-30T05:43:35.588Z,97993.69
2023-01-30T05:46:03.926Z,98009.25
2023-01-30T05:48:31.086Z,98000.53
2023-01-30T05:50:59.403Z,97984.97
2023-01-30T05:53:34.510Z,97992.63
2023-01-30T05:56:05.621Z,97951.59
2023-01-30T05:58:33.000Z,97972.63
2023-01-30T06:01:05.100Z,97976.09
2023-01-30T06:03:31.859Z,97980.41
2023-01-30T06:05:58.779Z,97931.38
2023-01-30T06:08:25.477Z,97946.31
2023-01-30T06:10:52.008Z,97931.97
2023-01-30T06:13:18.657Z,97966.53
2023-01-30T06:15:45.428Z,97916.69
2023-01-30T06:18:12.368Z,97953.38
2023-01-30T06:20:39.012Z,97936.69
2023-01-30T06:23:05.637Z,97918.44
2023-01-30T06:25:32.194Z,97921.03
2023-01-30T06:27:58.914Z,97919.13
2023-01-30T06:30:25.636Z,97913.78
2023-01-30T06:32:54.741Z,97886.59
2023-01-30T06:35:21.471Z,97912.09
2023-01-30T06:37:48.186Z,97879.78
2023-01-30T06:40:14.949Z,97924.47
2023-01-30T06:42:46.655Z,97915.25
2023-01-30T06:45:14.837Z,97899.91
2023-01-30T06:47:55.116Z,97908.81
2023-01-30T06:50:25.049Z,97891.31
2023-01-30T06:52:52.884Z,97839.56
2023-01-30T06:55:21.887Z,97889.63
2023-01-30T06:57:49.377Z,97892.28
2023-01-30T07:00:20.186Z,97874.69
2023-01-30T07:02:47.688Z,97835.88
2023-01-30T07:05:14.584Z,97833.22
2023-01-30T07:07:41.229Z,97862.47
2023-01-30T07:10:09.527Z,97858.41
2023-01-30T07:12:36.851Z,97851.47
2023-01-30T07:15:05.135Z,97851.13
2023-01-30T07:17:32.077Z,97854.59
2023-01-30T07:19:59.053Z,97855.41
2023-01-30T07:22:28.430Z,97840.94
2023-01-30T07:24:55.344Z,97858.03
2023-01-30T07:27:22.011Z,97854.47
2023-01-30T07:29:48.535Z,97846.44
2023-01-30T07:32:18.559Z,97851.63
2023-01-30T07:34:45.836Z,97855.06
2023-01-30T07:37:12.995Z,97845.88
2023-01-30T07:39:39.663Z,97856.63
2023-01-30T07:42:06.629Z,97851.25
2023-01-30T07:44:34.742Z,97848.75
2023-01-30T07:47:01.860Z,97820.69
2023-01-30T07:49:29.043Z,97835.09
2023-01-30T07:51:55.698Z,97833.34
2023-01-30T07:54:22.599Z,97803.75
2023-01-30T07:56:49.254Z,97842.78
2023-01-30T07:59:15.923Z,97823.97
2023-01-30T08:01:42.508Z,97825.06
2023-01-30T08:04:09.232Z,97828.41
2023-01-30T08:06:39.224Z,97824.84
2023-01-30T08:09:07.622Z,97818.75
2023-01-30T08:11:34.895Z,97811.41
2023-01-30T08:14:02.380Z,97772.63
2023-01-30T08:16:29.212Z,97786.63
2023-01-30T08:18:55.834Z,97825.94
2023-01-30T08:21:22.426Z,97813.59
2023-01-30T08:23:49.114Z,97804.50
2023-01-30T08:26:15.695Z,97807.03
2023-01-30T08:28:42.790Z,97772.91
2023-01-30T08:31:12.386Z,97765.34
2023-01-30T08:33:39.224Z,97757.22
2023-01-30T08:36:06.078Z,97770.38
2023-01-30T08:38:32.759Z,97761.41
2023-01-30T08:41:00.940Z,97766.53
2023-01-30T08:43:27.963Z,97765.25
2023-01-30T08:45:55.494Z,97763.56
2023-01-30T08:48:23.001Z,97753.16
2023-01-30T08:50:54.055Z,97756.97
2023-01-30T08:53:21.085Z,97756.84
2023-01-30T08:55:54.176Z,97754.91
2023-01-30T08:58:22.570Z,97739.84
2023-01-30T09:00:50.284Z,97748.50
2023-01-30T09:03:18.491Z,97737.22
2023-01-30T09:05:45.693Z,97753.41
2023-01-30T09:08:12.719Z,97729.19
2023-01-30T09:10:39.433Z,97729.41
2023-01-30T09:13:09.374Z,97729.41
2023-01-30T09:15:35.928Z,97738.06
2023-01-30T09:18:03.580Z,97737.09
2023-01-30T09:20:30.329Z,97719.97
2023-01-30T09:22:56.830Z,97736.13
2023-01-30T09:25:23.541Z,97724.88
2023-01-30T09:27:51.145Z,97739.47
2023-01-30T09:30:18.681Z,97707.50
2023-01-30T09:32:45.504Z,97728.81
2023-01-30T09:35:12.305Z,97717.16
2023-01-30T09:37:38.857Z,97721.50
2023-01-30T09:40:06.292Z,97701.25
2023-01-30T09:43:07.098Z,97701.25
2023-01-30T09:45:55.557Z,97697.91
2023-01-30T09:48:45.247Z,97710.84
2023-01-30T09:51:33.969Z,97694.31
2023-01-30T09:54:45.238Z,97703.03
2023-01-30T09:57:21.656Z,97695.25
2023-01-30T10:00:12.080Z,97675.63
2023-01-30T10:03:12.800Z,97675.13
2023-01-30T10:06:05.018Z,97683.88
2023-01-30T10:09:02.623Z,97655.72
2023-01-30T10:11:44.194Z,97642.91
2023-01-30T10:14:43.317Z,97642.53
2023-01-30T10:17:51.684Z,97636.31
2023-01-30T10:20:28.710Z,97623.94
2023-01-30T10:23:02.272Z,97631.84
2023-01-30T10:26:08.491Z,97597.50
2023-01-30T10:28:41.085Z,97598.16
2023-01-30T10:31:14.433Z,97548.06
2023-01-30T10:33:58.377Z,97604.16
2023-01-30T10:36:36.636Z,97595.28
2023-01-30T10:39:10.199Z,97572.81
2023-01-30T10:41:42.371Z,97587.25
2023-01-30T10:44:13.050Z,97585.56
2023-01-30T10:47:09.385Z,97569.22
2023-01-30T10:49:39.239Z,97579.34
2023-01-30T10:52:30.112Z,97592.53
2023-01-30T10:55:28.134Z,97584.59
2023-01-30T10:58:19.541Z,97588.06
2023-01-30T11:00:54.665Z,97566.81
2023-01-30T11:03:28.198Z,97547.53
2023-01-30T11:06:01.429Z,97574.88
2023-01-30T11:08:30.645Z,97570.47
2023-01-30T11:10:58.440Z,97547.75
2023-01-30T11:13:28.168Z,97558.09
2023-01-30T11:15:58.166Z,97529.81
2023-01-30T11:19:18.211Z,97556.31
2023-01-30T11:21:43.442Z,97550.09
2023-01-30T11:24:18.018Z,97531.56
2023-01-30T11:26:48.087Z,97549.09
2023-01-30T11:29:35.215Z,97535.91
2023-01-30T11:32:11.855Z,97535.91
2023-01-30T11:34:41.525Z,97517.03
2023-01-30T11:37:37.377Z,97519.13
2023-01-30T11:40:27.386Z,97506.47
2023-01-30T11:43:10.992Z,97495.25
2023-01-30T11:45:41.008Z,97485.59
2023-01-30T11:48:27.967Z,97488.41
2023-01-30T11:51:05.427Z,97499.84
2023-01-30T11:53:49.334Z,97499.00
2023-01-30T11:56:29.193Z,97495.41
2023-01-30T11:58:59.060Z,97487.34
2023-01-30T12:01:32.976Z,97487.34
2023-01-30T12:04:01.110Z,97476.00
2023-01-30T12:06:33.700Z,97485.56
2023-01-30T12:09:00.391Z,97446.09
2023-01-30T12:11:42.411Z,97467.38
2023-01-30T12:14:19.037Z,97473.78
2023-01-30T12:17:14.793Z,97469.22
2023-01-30T12:19:47.487Z,97464.78
2023-01-30T12:22:20.042Z,97464.78
2023-01-30T12:24:59.157Z,97444.63
2023-01-30T12:27:37.714Z,97443.38
2023-01-30T12:30:09.470Z,97454.81
2023-01-30T12:32:36.312Z,97460.09
2023-01-30T12:35:17.981Z,97450.38
2023-01-30T12:38:14.381Z,97460.78
2023-01-30T12:41:16.208Z,97448.44
2023-01-30T12:44:21.715Z,97451.94
2023-01-30T12:47:22.275Z,97458.88
2023-01-30T12:49:55.023Z,97446.66
2023-01-30T12:52:42.941Z,97445.78
2023-01-30T12:55:54.847Z,97447.75
2023-01-30T12:58:32.525Z,97433.59
2023-01-30T13:01:12.096Z,97438.75
2023-01-30T13:04:16.234Z,97432.59
2023-01-30T13:07:15.336Z,97444.00
2023-01-30T13:10:04.477Z,97433.59
2023-01-30T13:12:55.967Z,97430.81
2023-01-30T13:15:31.872Z,97421.09
2023-01-30T13:18:25.792Z,97437.78
2023-01-30T13:21:22.345Z,97439.41
2023-01-30T13:24:08.771Z,97435.00
2023-01-30T13:26:37.692Z,97433.19
2023-01-30T13:29:36.862Z,97431.25
2023-01-30T13:32:26.547Z,97423.34
2023-01-30T13:34:56.815Z,97426.69
2023-01-30T13:37:23.400Z,97420.72
2023-01-30T13:39:58.698Z,97423.91
2023-01-30T13:42:25.272Z,97424.75
2023-01-30T13:44:53.879Z,97418.50
2023-01-30T13:47:27.941Z,97418.50
2023-01-30T13:50:10.244Z,97417.53
2023-01-30T13:53:01.163Z,97415.72
2023-01-30T13:55:47.970Z,97403.53
2023-01-30T13:58:26.496Z,97405.16
2023-01-30T14:00:55.235Z,97388.78
2023-01-30T14:03:29.069Z,97407.94
2023-01-30T14:06:00.542Z,97403.38
2023-01-30T14:08:30.107Z,97415.72
2023-01-30T14:10:57.687Z,97405.06
2023-01-30T14:13:26.367Z,97405.88
2023-01-30T14:16:15.565Z,97409.47
2023-01-30T14:18:45.680Z,97405.16
2023-01-30T14:21:23.804Z,97397.25
2023-01-30T14:23:56.231Z,97389.47
2023-01-30T14:26:47.854Z,97392.13
2023-01-30T14:29:42.546Z,97390.44
2023-01-30T14:32:13.017Z,97388.78
2023-01-30T14:34:45.222Z,97380.19
2023-01-30T14:37:38.873Z,97393.94
2023-01-30T14:40:23.697Z,97386.03
2023-01-30T14:43:11.981Z,97387.81
2023-01-30T14:45:49.162Z,97390.44
2023-01-30T14:48:37.714Z,97394.91
2023-01-30T14:51:37.004Z,97400.19
2023-01-30T14:54:06.668Z,97387.81
2023-01-30T14:56:54.117Z,97401.84
2023-01-30T14:59:23.921Z,97406.03
2023-01-30T15:02:04.629Z,97403.53
2023-01-30T15:05:03.818Z,97394.47
2023-01-30T15:07:44.709Z,97383.50
2023-01-30T15:10:17.785Z,97404.09
2023-01-30T15:12:53.362Z,97406.59
2023-01-30T15:15:37.839Z,97405.75
2023-01-30T15:18:10.533Z,97408.38
2023-01-30T15:20:58.785Z,97406.59
2023-01-30T15:23:59.289Z,97415.34
2023-01-30T15:26:47.051Z,97416.19
2023-01-30T15:29:51.321Z,97417.81
2023-01-30T15:32:19.275Z,97416.03
2023-01-30T15:35:24.465Z,97420.22
2023-01-30T15:37:51.113Z,97424.53
2023-01-30T15:40:21.000Z,97423.41
2023-01-30T15:42:54.177Z,97417.03
2023-01-30T15:45:26.917Z,97433.59
2023-01-30T15:48:06.557Z,97432.63
2023-01-30T15:50:33.327Z,97429.97
2023-01-30T15:52:59.974Z,97444.72
2023-01-30T15:55:28.253Z,97434.41
2023-01-30T15:58:05.991Z,97444.59
2023-01-30T16:00:40.003Z,97423.84
2023-01-30T16:03:13.347Z,97446.94
2023-01-30T16:06:01.724Z,97449.59
2023-01-30T16:08:30.824Z,97446.94
2023-01-30T16:10:58.133Z,97423.81
2023-01-30T16:13:25.026Z,97394.81
2023-01-30T16:16:03.632Z,97459.47
2023-01-30T16:18:41.691Z,97458.63
2023-01-30T16:21:17.540Z,97457.44
2023-01-30T16:24:13.349Z,97477.19
2023-01-30T16:26:44.961Z,97475.53
2023-01-30T16:29:18.115Z,97477.34
2023-01-30T16:31:47.515Z,97423.06
2023-01-30T16:34:34.886Z,97476.91
2023-01-30T16:37:16.827Z,97487.31
2023-01-30T16:39:45.990Z,97474.13
2023-01-30T16:42:31.032Z,97485.88
2023-01-30T16:45:35.945Z,97473.81
2023-01-30T16:48:30.685Z,97483.97
2023-01-30T16:51:00.157Z,97484.94
2023-01-30T16:53:29.380Z,97463.78
2023-01-30T16:56:07.633Z,97487.56
2023-01-30T16:58:35.767Z,97447.53
2023-01-30T17:01:07.783Z,97434.81
2023-01-30T17:03:43.431Z,97482.44
2023-01-30T17:06:19.888Z,97433.41
2023-01-30T17:08:53.844Z,97499.22
2023-01-30T17:11:40.414Z,97480.06
2023-01-30T17:14:18.974Z,97478.25
2023-01-30T17:16:47.764Z,97416.31
2023-01-30T17:19:15.033Z,97423.13
2023-01-30T17:21:49.155Z,97473.81
2023-01-30T17:24:18.275Z,97400.56
2023-01-30T17:26:50.623Z,97453.91
2023-01-30T17:29:29.024Z,97468.09
2023-01-30T17:32:09.475Z,97470.16
2023-01-30T17:34:40.842Z,97402.97
2023-01-30T17:37:14.087Z,97455.97
2023-01-30T17:39:40.705Z,97474.91
2023-01-30T17:42:11.041Z,97477.53
2023-01-30T17:44:38.306Z,97482.00
2023-01-30T17:47:04.985Z,97459.44
2023-01-30T17:49:31.866Z,97478.50
2023-01-30T17:52:01.652Z,97468.81
2023-01-30T17:54:30.071Z,97457.25
2023-01-30T17:57:02.099Z,97470.59
2023-01-30T17:59:28.982Z,97452.66
2023-01-30T18:01:55.664Z,97454.31
2023-01-30T18:04:22.416Z,97460.03
2023-01-30T18:07:13.153Z,97455.75
2023-01-30T18:09:39.871Z,97456.56
2023-01-30T18:12:08.703Z,97446.31
2023-01-30T18:14:35.371Z,97454.09
2023-01-30T18:17:02.224Z,97422.06
2023-01-30T18:19:29.620Z,97460.03
2023-01-30T18:21:58.257Z,97439.31
2023-01-30T18:24:25.497Z,97441.00
2023-01-30T18:26:52.226Z,97456.66
2023-01-30T18:29:18.933Z,97465.22
2023-01-30T18:31:48.363Z,97419.84
2023-01-30T18:34:15.019Z,97459.06
2023-01-30T18:36:42.780Z,97462.56
2023-01-30T18:39:11.490Z,97465.22
2023-01-30T18:41:38.497Z,97462.69
2023-01-30T18:44:07.871Z,97466.88
2023-01-30T18:46:34.516Z,97464.25
2023-01-30T18:49:01.265Z,97465.06
2023-01-30T18:51:31.546Z,97456.19
2023-01-30T18:53:59.479Z,97454.91
2023-01-30T18:56:29.443Z,97469.38
2023-01-30T18:58:57.574Z,97463.91
2023-01-30T19:01:26.749Z,97481.59
2023-01-30T19:03:57.889Z,97464.78
2023-01-30T19:06:27.181Z,97460.38
2023-01-30T19:08:53.802Z,97447.84
2023-01-30T19:11:40.023Z,97438.41
2023-01-30T19:14:08.014Z,97454.13
2023-01-30T19:16:36.648Z,97402.47
2023-01-30T19:19:04.254Z,97461.06
2023-01-30T19:21:34.159Z,97446.03
2023-01-30T19:24:06.568Z,97464.53
2023-01-30T19:26:33.841Z,97454.75
2023-01-30T19:29:00.628Z,97465.25
2023-01-30T19:31:29.349Z,97453.41
2023-01-30T19:34:01.461Z,97455.81
2023-01-30T19:36:31.767Z,97444.91
2023-01-30T19:38:59.882Z,97447.56
2023-01-30T19:41:29.363Z,97465.25
2023-01-30T19:43:57.904Z,97442.03
2023-01-30T19:46:25.651Z,97412.38
2023-01-30T19:48:52.410Z,97464.16
2023-01-30T19:51:22.465Z,97463.56
2023-01-30T19:53:54.838Z,97465.81
2023-01-30T19:56:22.474Z,97464.00
2023-01-30T19:58:51.712Z,97459.00
2023-01-30T20:01:20.796Z,97475.38
2023-01-30T20:03:47.911Z,97471.81
2023-01-30T20:06:20.527Z,97451.72
2023-01-30T20:08:55.567Z,97467.75
2023-01-30T20:11:22.255Z,97463.78
2023-01-30T20:13:49.840Z,97475.97
2023-01-30T20:16:21.656Z,97482.13
2023-01-30T20:18:54.078Z,97481.25
2023-01-30T20:21:22.107Z,97449.94
2023-01-30T20:23:49.077Z,97470.84
2023-01-30T20:26:28.353Z,97474.88
2023-01-30T20:28:56.116Z,97447.31
2023-01-30T20:31:25.665Z,97452.88
2023-01-30T20:33:58.078Z,97473.81
2023-01-30T20:36:26.038Z,97475.59
2023-01-30T20:38:53.548Z,97482.53
2023-01-30T20:41:22.663Z,97418.78
2023-01-30T20:43:51.435Z,97483.50
2023-01-30T20:46:20.998Z,97462.59
2023-01-30T20:48:48.702Z,97451.88
2023-01-30T20:51:20.636Z,97494.91
2023-01-30T20:53:52.296Z,97487.75
2023-01-30T20:56:20.307Z,97500.06
2023-01-30T20:58:49.932Z,97503.66
2023-01-30T21:01:22.634Z,97501.97
2023-01-30T21:03:52.136Z,97504.47
2023-01-30T21:06:41.439Z,97491.22
2023-01-30T21:09:11.384Z,97458.63
2023-01-30T21:11:41.483Z,97445.97
2023-01-30T21:14:09.340Z,97451.00
2023-01-30T21:16:37.163Z,97476.00
2023-01-30T21:19:14.050Z,97516.03
2023-01-30T21:21:54.133Z,97512.94
2023-01-30T21:24:26.618Z,97514.34
2023-01-30T21:26:53.807Z,97530.19
2023-01-30T21:29:23.189Z,97520.59
2023-01-30T21:31:50.319Z,97531.88
2023-01-30T21:34:17.059Z,97535.47
2023-01-30T21:36:43.928Z,97542.53
2023-01-30T21:39:32.043Z,97543.78
2023-01-30T21:42:20.135Z,97536.81
2023-01-30T21:44:47.865Z,97545.47
2023-01-30T21:47:14.431Z,97551.41
2023-01-30T21:49:43.907Z,97549.78
2023-01-30T21:52:10.507Z,97555.88
2023-01-30T21:54:37.749Z,97561.16
2023-01-30T21:57:04.381Z,97545.22
2023-01-30T21:59:31.938Z,97542.72
2023-01-30T22:01:58.469Z,97572.66
2023-01-30T22:04:25.198Z,97565.72
2023-01-30T22:06:52.025Z,97545.56
2023-01-30T22:09:18.669Z,97571.84
2023-01-30T22:11:46.189Z,97560.44
2023-01-30T22:14:14.188Z,97570.16
2023-01-30T22:16:41.750Z,97501.41
2023-01-30T22:19:08.865Z,97533.03
2023-01-30T22:21:38.782Z,97529.66
2023-01-30T22:24:08.032Z,97586.00
2023-01-30T22:26:36.394Z,97588.63
2023-01-30T22:29:05.109Z,97583.72
2023-01-30T22:31:34.601Z,97579.66
2023-01-30T22:34:02.754Z,97595.22
2023-01-30T22:36:31.527Z,97588.78
2023-01-30T22:38:58.359Z,97585.03
2023-01-30T22:41:29.250Z,97595.84
2023-01-30T22:43:58.745Z,97601.13
2023-01-30T22:46:33.703Z,97597.88
2023-01-30T22:49:01.667Z,97595.84
2023-01-30T22:51:37.073Z,97589.88
2023-01-30T22:54:07.141Z,97610.84
2023-01-30T22:56:41.651Z,97603.03
2023-01-30T22:59:09.282Z,97605.69
2023-01-30T23:01:39.326Z,97573.03
2023-01-30T23:04:11.841Z,97567.47
2023-01-30T23:06:39.237Z,97511.00
2023-01-30T23:09:08.021Z,97578.66
2023-01-30T23:11:43.891Z,97600.50
2023-01-30T23:14:15.871Z,97601.38
2023-01-30T23:16:44.264Z,97594.41
2023-01-30T23:19:12.644Z,97597.03
2023-01-30T23:21:46.354Z,97598.88
2023-01-30T23:24:20.555Z,97603.28
2023-01-30T23:26:49.882Z,97605.09
2023-01-30T23:29:18.889Z,97619.25
2023-01-30T23:31:46.644Z,97627.16
2023-01-30T23:34:16.607Z,97623.00
2023-01-30T23:36:43.503Z,97604.31
2023-01-30T23:39:11.101Z,97626.44
2023-01-30T23:41:38.024Z,97622.03
2023-01-30T23:44:04.684Z,97616.03
2023-01-30T23:46:40.002Z,97591.34
2023-01-30T23:49:09.520Z,97631.88
2023-01-30T23:51:38.039Z,97617.28
2023-01-30T23:54:05.350Z,97631.00
2023-01-30T23:56:35.498Z,97633.66
2023-01-30T23:59:02.774Z,97636.28
